createdAt,value
2023-03-06T00:02:35.539Z,0
2023-03-06T00:07:55.202Z,0
2023-03-06T00:13:14.151Z,0
2023-03-06T00:18:33.083Z,0
2023-03-06T00:23:51.984Z,0
2023-03-06T00:29:11.375Z,0
2023-03-06T00:34:30.886Z,0
2023-03-06T00:39:50.286Z,0
2023-03-06T00:50:29.125Z,0
2023-03-06T00:55:48.440Z,0
2023-03-06T01:06:27.188Z,0
2023-03-06T01:11:47.056Z,0
2023-03-06T01:17:05.783Z,0
2023-03-06T01:33:02.772Z,0
2023-03-06T01:38:21.837Z,0
2023-03-06T01:43:41.055Z,0
2023-03-06T01:49:00.854Z,0
2023-03-06T01:54:20.416Z,0
2023-03-06T01:59:39.438Z,0
2023-03-06T02:10:18.521Z,0
2023-03-06T02:15:37.631Z,0
2023-03-06T02:20:56.523Z,0
2023-03-06T02:26:15.553Z,0
2023-03-06T02:31:35.395Z,0
2023-03-06T02:36:54.389Z,0
2023-03-06T02:42:13.676Z,0
2023-03-06T02:52:52.741Z,0
2023-03-06T02:58:11.815Z,0
2023-03-06T03:04:46.161Z,0
2023-03-06T03:08:51.759Z,0
2023-03-06T03:14:10.370Z,0
2023-03-06T03:19:29.539Z,0
2023-03-06T03:24:48.860Z,0
2023-03-06T03:30:08.334Z,0
2023-03-06T03:35:27.632Z,0
2023-03-06T03:40:46.673Z,0
2023-03-06T03:51:25.156Z,0
2023-03-06T03:56:44.680Z,0
2023-03-06T04:02:04.313Z,0
2023-03-06T04:07:23.553Z,0
2023-03-06T04:12:43.083Z,0
2023-03-06T04:18:01.877Z,0
2023-03-06T04:23:21.156Z,0
2023-03-06T04:34:00.156Z,0
2023-03-06T04:39:19.193Z,0
2023-03-06T04:49:57.416Z,0
2023-03-06T04:55:16.936Z,0
2023-03-06T05:00:36.121Z,0
2023-03-06T05:05:55.419Z,0
2023-03-06T05:16:33.729Z,0
2023-03-06T05:21:52.270Z,0
2023-03-06T05:27:11.097Z,0
2023-03-06T05:32:30.215Z,0
2023-03-06T05:37:49.611Z,0
2023-03-06T05:43:09.334Z,0
2023-03-06T05:48:28.985Z,0.0012
2023-03-06T05:59:07.975Z,0.0125
2023-03-06T06:04:27.773Z,0.0243
2023-03-06T06:15:05.764Z,0.0282
2023-03-06T06:20:24.618Z,0.0307
2023-03-06T06:25:44.349Z,0.0379
2023-03-06T06:31:03.275Z,0.0371
2023-03-06T06:41:57.185Z,0.0335
2023-03-06T06:47:23.326Z,0.0339
2023-03-06T06:57:39.471Z,0.037
2023-03-06T07:02:59.215Z,0.0436
2023-03-06T07:08:18.672Z,0.052
2023-03-06T07:13:38.309Z,0.0629
2023-03-06T07:24:16.048Z,0.0732
2023-03-06T07:29:34.899Z,0.0638
2023-03-06T07:40:13.874Z,0.0563
2023-03-06T07:45:32.849Z,0.0579
2023-03-06T07:50:51.691Z,0.067
2023-03-06T07:56:10.870Z,0.0862
2023-03-06T08:01:29.871Z,0.0951
2023-03-06T08:06:49.737Z,0.0825
2023-03-06T08:12:08.921Z,0.0759
2023-03-06T08:22:47.804Z,0.0695
2023-03-06T08:28:07.102Z,0.0786
2023-03-06T08:33:26.685Z,0.0955
2023-03-06T08:38:45.106Z,0.1003
2023-03-06T08:44:03.830Z,0.1127
2023-03-06T08:49:23.510Z,0.1379
2023-03-06T09:00:02.339Z,0.1629
2023-03-06T09:05:21.663Z,0.2123
2023-03-06T09:10:42.100Z,0.2425
2023-03-06T09:16:01.769Z,0.1936
2023-03-06T09:21:20.945Z,0.1828
2023-03-06T09:26:45.810Z,0.1421
2023-03-06T09:31:59.022Z,0.1379
2023-03-06T09:42:37.100Z,0.1319
2023-03-06T09:47:55.722Z,0.1828
2023-03-06T09:58:34.286Z,0.2242
2023-03-06T10:03:53.891Z,0.2469
2023-03-06T10:09:13.146Z,0.3214
2023-03-06T10:14:32.330Z,0.4913
2023-03-06T10:21:18.596Z,0.4054
2023-03-06T10:25:11.579Z,0.4383
2023-03-06T10:30:30.721Z,0.338
2023-03-06T10:41:08.958Z,0.3681
2023-03-06T10:46:28.373Z,0.3285
2023-03-06T10:51:47.062Z,0.2787
2023-03-06T10:57:06.854Z,0.2331
2023-03-06T11:02:26.037Z,0.2528
2023-03-06T11:07:45.479Z,0.24
2023-03-06T11:13:04.599Z,0.2662
2023-03-06T11:23:43.400Z,0.1914
2023-03-06T11:29:02.181Z,0.2344
2023-03-06T11:34:21.512Z,0.2436
2023-03-06T11:39:40.608Z,0.2467
2023-03-06T11:45:00.342Z,0.2569
2023-03-06T11:50:17.967Z,0.2776
2023-03-06T11:55:37.029Z,0.2767
2023-03-06T12:06:15.642Z,0.3155
2023-03-06T12:11:34.992Z,0.287
2023-03-06T12:16:54.266Z,0.2857
2023-03-06T12:22:13.537Z,0.2299
2023-03-06T12:27:32.511Z,0.1862
2023-03-06T12:32:52.214Z,0.2007
2023-03-06T12:48:50.394Z,0.4711
2023-03-06T12:54:10.137Z,0.4221
2023-03-06T13:04:48.697Z,0.6575
2023-03-06T13:10:07.709Z,0.845
2023-03-06T13:15:26.995Z,0.3112
2023-03-06T13:20:46.233Z,0.3794
2023-03-06T13:31:27.653Z,0.1416
2023-03-06T13:36:44.365Z,0.1739
2023-03-06T13:42:03.844Z,0.1414
2023-03-06T13:47:22.850Z,0.1005
2023-03-06T13:52:41.918Z,0.1773
2023-03-06T13:58:01.283Z,0.1875
2023-03-06T14:03:20.681Z,0.1241
2023-03-06T14:13:59.722Z,0.2313
2023-03-06T14:19:19.572Z,0.2377
2023-03-06T14:29:57.762Z,0.2448
2023-03-06T14:35:17.085Z,0.211
2023-03-06T14:40:36.469Z,0.2232
2023-03-06T14:45:54.389Z,0.2409
2023-03-06T14:51:13.883Z,0.2616
2023-03-06T14:56:33.382Z,0.2432
2023-03-06T15:01:52.264Z,0.2387
2023-03-06T15:12:32.210Z,0.1641
2023-03-06T15:17:51.195Z,0.1476
2023-03-06T15:23:10.973Z,0.1419
2023-03-06T15:28:30.666Z,0.1265
2023-03-06T15:33:49.643Z,0.1144
2023-03-06T15:39:08.829Z,0.0934
2023-03-06T15:49:47.946Z,0.0653
2023-03-06T15:55:07.360Z,0.05
2023-03-06T16:05:44.791Z,0.0439
2023-03-06T16:11:04.182Z,0.0432
2023-03-06T16:22:08.955Z,0.0336
2023-03-06T16:27:28.374Z,0.0334
2023-03-06T16:32:47.450Z,0.0288
2023-03-06T16:38:07.095Z,0.0295
2023-03-06T16:43:26.406Z,0.0259
2023-03-06T16:48:45.694Z,0.0226
2023-03-06T16:54:04.911Z,0.0173
2023-03-06T17:04:43.438Z,0.0102
2023-03-06T17:10:03.200Z,0.0042
2023-03-06T17:20:41.878Z,0.0006
2023-03-06T17:26:01.457Z,0
2023-03-06T17:36:39.939Z,0
2023-03-06T17:47:18.615Z,0
2023-03-06T17:52:37.653Z,0
2023-03-06T18:03:16.321Z,0
2023-03-06T18:08:35.106Z,0
2023-03-06T18:13:54.175Z,0
2023-03-06T18:19:13.039Z,0
2023-03-06T18:24:32.788Z,0
2023-03-06T18:29:51.938Z,0
2023-03-06T18:35:11.354Z,0
2023-03-06T18:45:50.198Z,0
2023-03-06T18:51:10.159Z,0
2023-03-06T18:56:29.737Z,0
2023-03-06T19:01:48.539Z,0
2023-03-06T19:07:08.047Z,0
2023-03-06T19:12:27.012Z,0
2023-03-06T19:17:46.598Z,0
2023-03-06T19:23:06.126Z,0
2023-03-06T19:28:25.341Z,0
2023-03-06T19:33:45.202Z,0
2023-03-06T19:44:23.666Z,0
2023-03-06T19:49:42.856Z,0
2023-03-06T19:55:02.485Z,0
2023-03-06T20:00:22.218Z,0
2023-03-06T20:05:41.065Z,0
2023-03-06T20:10:59.958Z,0
2023-03-06T20:16:18.828Z,0
2023-03-06T20:26:57.501Z,0
2023-03-06T20:32:16.891Z,0
2023-03-06T20:37:35.891Z,0
2023-03-06T20:42:55.022Z,0
2023-03-06T20:48:14.764Z,0
2023-03-06T20:53:33.995Z,0
2023-03-06T20:58:53.467Z,0
2023-03-06T21:09:32.255Z,0
2023-03-06T21:14:51.703Z,0
2023-03-06T21:20:10.759Z,0
2023-03-06T21:25:29.926Z,0
2023-03-06T21:30:49.022Z,0
2023-03-06T21:36:08.646Z,0
2023-03-06T21:41:28.272Z,0
2023-03-06T21:52:07.032Z,0
2023-03-06T21:57:26.681Z,0
2023-03-06T22:02:45.441Z,0
2023-03-06T22:08:05.040Z,0
2023-03-06T22:13:24.222Z,0
2023-03-06T22:18:43.697Z,0
2023-03-06T22:29:22.337Z,0
2023-03-06T22:34:41.213Z,0
2023-03-06T22:45:19.990Z,0
2023-03-06T22:50:39.545Z,0
2023-03-06T22:55:59.130Z,0
2023-03-06T23:01:18.891Z,0
2023-03-06T23:11:57.342Z,0
2023-03-06T23:17:16.889Z,0
2023-03-06T23:27:55.066Z,0
2023-03-06T23:33:14.058Z,0
2023-03-06T23:43:55.111Z,0
2023-03-06T23:49:11.936Z,0
2023-03-06T23:54:31.021Z,0
2023-03-06T23:59:49.935Z,0
